Terminal Aerodrome Forecast
Issued by NWS

Home | Current Version | Previous Version | Text Only | Print | Product List | Glossary On
Versions: 1 2 3 4 5 6 7 8 9 10 11 12 13 14 15 16 17 18 19 20 21
000
FTUS44 KBMX 212340
TAFEET
TAF
KEET 212340Z 2200/2224 17004KT P6SM SCT090
     FM220600 18005KT 6SM BR OVC015
     FM221100 17003KT P6SM OVC008
     FM221600 17006KT P6SM OVC015
     FM221800 18008KT P6SM BKN025
     FM222000 18008KT P6SM BKN040=

USA.gov is the U.S. government's official web portal to all federal, state and local government web resources and services.